Time;durP1;ratioP1;P1;durP2;ratioP2;P2;SDS_P1;SDS_P2;PMS_P1;PMS_P2;Temp;Humidity;BMP_temperature;BMP_pressure;BME280_temperature;BME280_humidity;BME280_pressure;Samples;Min_cycle;Max_cycle;Signal;HPM_P1;HPM_P2
2023/08/07 00:00:33;;;;;;;4.18;2.00;;;15.30;99.90;;;;;;5036885;28;20336;-64
2023/08/07 00:02:59;;;;;;;4.75;1.90;;;15.30;99.90;;;;;;5040064;28;20090;-63
2023/08/07 00:05:25;;;;;;;4.35;1.70;;;15.30;99.90;;;;;;5040294;28;20125;-64
2023/08/07 00:07:50;;;;;;;4.40;1.38;;;15.40;99.90;;;;;;5002820;28;20052;-63
2023/08/07 00:10:16;;;;;;;4.07;1.40;;;15.30;99.90;;;;;;5040522;28;20065;-64
2023/08/07 00:12:42;;;;;;;2.92;1.33;;;15.40;99.90;;;;;;5041063;28;20537;-64
2023/08/07 00:15:09;;;;;;;4.18;1.48;;;15.40;99.90;;;;;;5040261;28;20120;-63
2023/08/07 00:17:35;;;;;;;4.82;1.58;;;15.40;99.90;;;;;;5040412;28;20276;-64
2023/08/07 00:20:01;;;;;;;3.78;1.67;;;15.40;99.90;;;;;;5041435;28;20048;-63
2023/08/07 00:22:27;;;;;;;4.97;1.90;;;15.30;99.90;;;;;;5038187;28;20116;-64
2023/08/07 00:24:52;;;;;;;6.15;2.00;;;15.40;99.90;;;;;;5020842;28;20051;-64
2023/08/07 00:27:18;;;;;;;9.70;2.53;;;15.30;99.90;;;;;;5021217;28;20041;-65
2023/08/07 00:29:44;;;;;;;10.23;3.20;;;15.30;99.90;;;;;;5020835;28;20566;-64
2023/08/07 00:32:09;;;;;;;9.45;2.90;;;15.40;99.90;;;;;;5037545;28;20509;-64
2023/08/07 00:34:38;;;;;;;9.90;2.08;;;15.30;99.90;;;;;;5037356;28;20436;-64
2023/08/07 00:37:04;;;;;;;8.40;2.30;;;15.30;99.90;;;;;;5037762;28;20072;-65
2023/08/07 00:39:29;;;;;;;5.80;1.90;;;15.20;99.90;;;;;;5036431;28;20202;-62
2023/08/07 00:41:55;;;;;;;5.32;1.00;;;15.10;99.90;;;;;;5022922;28;20918;-63
2023/08/07 00:44:23;;;;;;;3.25;1.00;;;15.00;99.90;;;;;;5037353;28;20063;-63
2023/08/07 00:46:49;;;;;;;4.05;0.70;;;15.00;99.90;;;;;;5038672;28;20410;-64
2023/08/07 00:49:15;;;;;;;6.88;0.93;;;15.00;99.90;;;;;;5036039;28;20542;-63
2023/08/07 00:51:41;;;;;;;3.13;0.50;;;14.90;99.90;;;;;;5039129;28;20071;-63
2023/08/07 00:54:09;;;;;;;4.70;0.68;;;14.80;99.90;;;;;;5036135;28;20321;-63
2023/08/07 00:56:35;;;;;;;3.88;0.70;;;14.80;99.90;;;;;;5037010;28;20053;-64
2023/08/07 00:59:01;;;;;;;3.90;0.93;;;14.70;99.90;;;;;;5036024;28;20089;-63
2023/08/07 01:01:27;;;;;;;1.55;0.60;;;14.70;99.90;;;;;;5036556;28;20547;-64
2023/08/07 01:03:53;;;;;;;2.15;0.73;;;14.60;99.90;;;;;;5036321;28;20283;-64
2023/08/07 01:06:19;;;;;;;2.45;0.70;;;14.60;99.90;;;;;;5052371;28;20371;-64
2023/08/07 01:08:45;;;;;;;4.35;1.25;;;14.60;99.90;;;;;;5038730;28;20035;-64
2023/08/07 01:11:30;;;;;;;5.90;1.50;;;14.50;99.90;;;;;;5019499;28;20469;-63
2023/08/07 01:14:08;;;;;;;4.03;1.60;;;14.60;99.90;;;;;;5038444;28;20303;-63
2023/08/07 01:16:40;;;;;;;5.35;2.03;;;14.70;99.90;;;;;;5037971;28;20993;-64
2023/08/07 01:19:12;;;;;;;7.68;2.40;;;14.70;99.90;;;;;;5039442;28;20032;-65
2023/08/07 01:21:38;;;;;;;4.13;1.73;;;14.80;99.90;;;;;;5040391;28;20147;-64
2023/08/07 01:24:04;;;;;;;8.93;2.47;;;14.80;99.90;;;;;;5019651;28;20041;-64
2023/08/07 01:26:30;;;;;;;4.75;1.95;;;14.80;99.90;;;;;;5033759;28;20064;-63
2023/08/07 01:29:09;;;;;;;5.63;1.73;;;14.80;99.90;;;;;;5021446;28;20127;-63
2023/08/07 01:31:39;;;;;;;4.03;1.58;;;14.80;99.90;;;;;;5038812;28;20048;-64
2023/08/07 01:34:08;;;;;;;4.60;1.70;;;14.90;99.90;;;;;;5037126;28;20045;-64
2023/08/07 01:36:34;;;;;;;3.85;1.45;;;14.80;99.90;;;;;;5034611;28;20041;-64
2023/08/07 01:39:01;;;;;;;10.13;1.20;;;14.80;99.90;;;;;;5038683;28;20361;-63
2023/08/07 01:41:27;;;;;;;4.45;1.38;;;14.80;99.90;;;;;;5033587;28;20045;-64
2023/08/07 01:43:54;;;;;;;4.80;1.10;;;14.70;99.90;;;;;;5040574;28;20758;-64
2023/08/07 01:46:20;;;;;;;4.35;1.30;;;14.60;99.90;;;;;;5040987;28;20044;-64
2023/08/07 01:48:47;;;;;;;6.07;1.40;;;14.60;99.90;;;;;;5042225;28;20037;-64
2023/08/07 01:51:13;;;;;;;3.80;1.58;;;14.50;99.90;;;;;;5025261;28;20047;-64
2023/08/07 01:53:38;;;;;;;6.65;2.10;;;14.40;99.90;;;;;;5023132;28;20044;-64
2023/08/07 01:56:04;;;;;;;6.30;1.70;;;14.30;99.90;;;;;;5025800;28;20044;-63
2023/08/07 01:58:30;;;;;;;5.18;1.65;;;14.30;99.90;;;;;;5039854;28;20041;-63
2023/08/07 02:00:56;;;;;;;6.93;1.80;;;14.30;99.90;;;;;;5017023;28;20252;-64
2023/08/07 02:03:21;;;;;;;8.32;2.13;;;14.20;99.90;;;;;;5040328;28;20040;-63
2023/08/07 02:05:47;;;;;;;6.15;2.15;;;14.20;99.90;;;;;;5022867;28;20033;-61
2023/08/07 02:08:14;;;;;;;6.35;1.98;;;14.10;99.90;;;;;;5035263;28;20120;-62
2023/08/07 02:10:40;;;;;;;5.88;2.33;;;14.10;99.90;;;;;;5043079;28;20059;-64
2023/08/07 02:13:05;;;;;;;7.97;2.63;;;14.00;99.90;;;;;;5022789;28;20624;-64
2023/08/07 02:15:31;;;;;;;9.93;2.67;;;14.10;99.90;;;;;;5036979;28;20108;-63
2023/08/07 02:17:57;;;;;;;13.13;3.00;;;14.10;99.90;;;;;;5042388;28;20475;-66
2023/08/07 02:20:22;;;;;;;8.55;3.20;;;14.10;99.90;;;;;;5040421;28;20107;-64
2023/08/07 02:22:48;;;;;;;12.27;3.63;;;14.10;99.90;;;;;;5023418;28;20040;-64
2023/08/07 02:25:14;;;;;;;7.88;3.38;;;14.20;99.90;;;;;;5032594;28;20045;-64
2023/08/07 02:27:39;;;;;;;8.40;3.25;;;14.20;99.90;;;;;;5041031;28;20684;-63
2023/08/07 02:30:06;;;;;;;7.68;3.40;;;14.20;99.90;;;;;;5045000;28;20036;-65
2023/08/07 02:32:31;;;;;;;7.35;3.63;;;14.30;99.90;;;;;;5041980;28;20542;-64
2023/08/07 02:34:57;;;;;;;9.85;3.40;;;14.20;99.90;;;;;;5040025;28;20070;-64
2023/08/07 02:37:23;;;;;;;10.85;3.63;;;14.30;99.90;;;;;;5039727;28;20902;-64
2023/08/07 02:39:49;;;;;;;10.60;3.30;;;14.40;99.90;;;;;;5038772;28;20083;-63
2023/08/07 02:42:15;;;;;;;6.90;3.10;;;14.30;99.90;;;;;;5035267;28;20155;-63
2023/08/07 02:44:40;;;;;;;9.48;3.22;;;14.30;99.90;;;;;;5042410;28;20275;-64
2023/08/07 02:47:06;;;;;;;6.45;3.10;;;14.20;99.90;;;;;;5020771;28;20032;-65
2023/08/07 02:49:32;;;;;;;6.70;2.92;;;14.20;99.90;;;;;;5040813;28;20200;-64
2023/08/07 02:51:57;;;;;;;6.68;2.40;;;14.20;99.90;;;;;;5020077;28;20195;-64
2023/08/07 02:54:23;;;;;;;6.18;1.85;;;14.20;99.90;;;;;;5041747;28;20067;-65
2023/08/07 02:56:49;;;;;;;3.85;1.50;;;14.30;99.90;;;;;;5038471;28;20118;-64
2023/08/07 02:59:15;;;;;;;6.40;1.58;;;14.40;99.90;;;;;;5034375;28;20124;-65
2023/08/07 03:01:43;;;;;;;5.93;1.50;;;14.50;99.90;;;;;;5040616;28;20151;-64
2023/08/07 03:04:09;;;;;;;5.57;1.08;;;14.50;99.90;;;;;;5050661;28;20199;-64
2023/08/07 03:06:34;;;;;;;5.15;0.90;;;14.50;99.90;;;;;;5029519;28;20334;-64
2023/08/07 03:09:00;;;;;;;6.47;1.35;;;14.50;99.90;;;;;;5019516;28;20158;-64
2023/08/07 03:11:26;;;;;;;8.73;0.77;;;14.50;99.90;;;;;;5040640;28;20053;-64
2023/08/07 03:13:51;;;;;;;4.57;0.85;;;14.50;99.90;;;;;;5024560;28;20755;-64
2023/08/07 03:16:17;;;;;;;6.22;0.60;;;14.50;99.90;;;;;;5041008;28;20701;-64
2023/08/07 03:18:43;;;;;;;6.47;0.80;;;14.50;99.90;;;;;;5023211;28;20127;-65
2023/08/07 03:21:08;;;;;;;7.30;0.73;;;14.50;99.90;;;;;;5039100;28;20566;-65
2023/08/07 03:23:34;;;;;;;9.13;0.80;;;14.60;99.90;;;;;;5040303;28;20086;-65
2023/08/07 03:26:05;;;;;;;11.15;1.00;;;14.50;99.90;;;;;;5037780;28;20037;-65
2023/08/07 03:28:31;;;;;;;11.60;0.93;;;14.50;99.90;;;;;;5038245;28;20395;-65
2023/08/07 03:30:58;;;;;;;7.80;1.10;;;14.60;99.90;;;;;;5039179;28;20502;-65
2023/08/07 03:33:24;;;;;;;7.38;0.90;;;14.70;99.90;;;;;;5041202;28;20048;-65
2023/08/07 03:35:50;;;;;;;10.52;0.75;;;14.60;99.90;;;;;;5040172;28;20029;-65
2023/08/07 03:38:15;;;;;;;6.90;0.80;;;14.70;99.90;;;;;;5001764;28;20183;-65
2023/08/07 03:40:41;;;;;;;5.00;0.70;;;14.60;99.90;;;;;;5039778;28;20498;-65
2023/08/07 03:43:07;;;;;;;8.80;0.50;;;14.60;99.90;;;;;;5019306;28;20048;-65
2023/08/07 03:45:32;;;;;;;9.93;0.95;;;14.70;99.90;;;;;;5025362;28;20040;-66
2023/08/07 03:47:58;;;;;;;7.35;0.52;;;14.70;99.90;;;;;;5023853;28;20503;-64
2023/08/07 03:50:25;;;;;;;5.32;0.45;;;14.80;99.90;;;;;;5022953;28;20486;-64
2023/08/07 03:52:50;;;;;;;4.43;0.50;;;14.80;99.90;;;;;;5021949;28;20040;-65
2023/08/07 03:55:16;;;;;;;5.90;0.50;;;14.80;99.90;;;;;;5019897;28;20067;-65
2023/08/07 03:57:42;;;;;;;7.07;0.77;;;14.90;99.90;;;;;;5037581;28;20222;-64
2023/08/07 04:00:08;;;;;;;9.10;0.80;;;15.00;99.90;;;;;;5033104;28;20028;-64
2023/08/07 04:02:34;;;;;;;7.13;0.90;;;15.00;99.90;;;;;;5037692;28;20048;-66
2023/08/07 04:05:00;;;;;;;8.65;1.42;;;15.10;99.90;;;;;;5037298;28;20628;-65
2023/08/07 04:07:25;;;;;;;8.20;1.60;;;15.30;99.90;;;;;;5039694;28;20036;-65
2023/08/07 04:09:51;;;;;;;8.73;1.42;;;15.30;99.90;;;;;;5032052;28;20496;-65
2023/08/07 04:12:17;;;;;;;10.30;1.58;;;15.40;99.90;;;;;;5022027;28;20059;-65
2023/08/07 04:14:42;;;;;;;9.90;2.20;;;15.40;99.90;;;;;;5020349;28;20166;-65
2023/08/07 04:17:08;;;;;;;12.80;2.22;;;15.50;99.90;;;;;;5020918;28;21807;-64
2023/08/07 04:19:34;;;;;;;13.63;2.13;;;15.40;99.90;;;;;;5037264;28;20071;-64
2023/08/07 04:21:59;;;;;;;11.55;2.20;;;15.40;99.90;;;;;;5018251;28;20507;-65
2023/08/07 04:24:25;;;;;;;10.05;2.78;;;15.40;99.90;;;;;;5037718;28;20045;-64
2023/08/07 04:26:51;;;;;;;13.15;2.10;;;15.30;99.90;;;;;;5040803;28;20040;-66
2023/08/07 04:29:17;;;;;;;15.02;2.17;;;15.30;99.90;;;;;;5037883;28;20110;-65
2023/08/07 04:31:42;;;;;;;15.68;2.28;;;15.40;99.90;;;;;;5024135;28;20102;-66
2023/08/07 04:34:08;;;;;;;15.95;2.28;;;15.50;99.90;;;;;;5019538;28;20116;-66
2023/08/07 04:36:34;;;;;;;12.75;1.77;;;15.50;99.90;;;;;;5034437;28;20381;-65
2023/08/07 04:38:59;;;;;;;15.77;1.90;;;15.50;99.90;;;;;;5021042;28;20080;-65
2023/08/07 04:41:25;;;;;;;13.80;2.30;;;15.60;99.90;;;;;;5038800;28;20051;-65
2023/08/07 04:43:51;;;;;;;12.38;1.80;;;15.70;99.90;;;;;;5035444;28;20253;-65
2023/08/07 04:46:17;;;;;;;9.93;1.60;;;15.70;99.90;;;;;;5019923;28;20052;-65
2023/08/07 04:48:43;;;;;;;11.60;1.50;;;15.70;99.90;;;;;;5037610;28;20472;-65
2023/08/07 04:51:09;;;;;;;14.27;2.00;;;15.70;99.90;;;;;;5035718;28;20178;-64
2023/08/07 04:53:34;;;;;;;8.95;1.58;;;15.70;99.90;;;;;;5019210;28;20123;-64
2023/08/07 04:56:00;;;;;;;13.55;1.92;;;15.60;99.90;;;;;;5018867;28;20141;-65
2023/08/07 04:58:29;;;;;;;11.20;2.25;;;15.60;99.90;;;;;;5036899;28;20601;-65
2023/08/07 05:00:56;;;;;;;13.80;2.45;;;15.50;99.90;;;;;;5036167;28;20041;-64
2023/08/07 05:03:22;;;;;;;17.52;2.25;;;15.50;99.90;;;;;;5034338;28;20037;-64
2023/08/07 05:05:47;;;;;;;14.50;2.00;;;15.50;99.90;;;;;;5017055;28;20048;-64
2023/08/07 05:08:13;;;;;;;12.05;2.25;;;15.50;99.90;;;;;;5017662;28;20180;-64
2023/08/07 05:10:39;;;;;;;15.32;2.25;;;15.30;99.90;;;;;;5040291;28;20067;-63
2023/08/07 05:13:04;;;;;;;16.10;2.60;;;15.10;99.90;;;;;;5017788;28;20782;-63
2023/08/07 05:15:31;;;;;;;12.00;2.88;;;15.00;99.90;;;;;;5023264;28;20121;-63
2023/08/07 05:17:57;;;;;;;12.95;2.70;;;15.00;99.90;;;;;;5016706;28;20047;-64
2023/08/07 05:20:22;;;;;;;19.80;3.50;;;14.90;99.90;;;;;;5032753;28;20060;-62
2023/08/07 05:22:49;;;;;;;19.02;3.65;;;15.00;99.90;;;;;;5019457;28;20323;-64
2023/08/07 05:25:16;;;;;;;18.55;3.78;;;15.00;99.90;;;;;;5034650;28;20344;-64
2023/08/07 05:27:43;;;;;;;19.77;3.05;;;15.10;99.90;;;;;;5035702;28;20048;-63
2023/08/07 05:30:09;;;;;;;16.90;2.63;;;15.10;99.90;;;;;;5021141;28;20559;-64
2023/08/07 05:32:37;;;;;;;20.25;2.90;;;15.30;99.90;;;;;;5034436;28;20223;-63
2023/08/07 05:35:05;;;;;;;18.70;2.75;;;15.40;99.90;;;;;;5029213;28;20198;-63
2023/08/07 05:37:31;;;;;;;12.93;2.00;;;15.50;99.90;;;;;;5035126;28;20239;-63
2023/08/07 05:39:58;;;;;;;9.88;2.08;;;15.60;99.90;;;;;;5034982;28;20578;-64
2023/08/07 05:42:24;;;;;;;12.38;2.10;;;15.70;99.90;;;;;;5033830;28;20660;-63
2023/08/07 05:44:50;;;;;;;15.57;2.90;;;15.70;99.90;;;;;;5036332;28;20237;-63
2023/08/07 05:47:15;;;;;;;16.65;2.47;;;15.80;99.90;;;;;;5017678;28;20045;-64
2023/08/07 05:49:41;;;;;;;15.40;2.38;;;15.80;99.90;;;;;;5018769;28;20392;-64
2023/08/07 05:52:07;;;;;;;16.00;2.00;;;15.80;99.90;;;;;;5022569;28;20057;-64
2023/08/07 05:54:33;;;;;;;17.17;2.60;;;15.80;99.90;;;;;;5018975;28;20226;-63
2023/08/07 05:56:59;;;;;;;11.73;2.00;;;15.90;99.90;;;;;;5034277;28;20497;-64
2023/08/07 05:59:24;;;;;;;14.95;2.35;;;15.90;99.90;;;;;;5018399;28;20103;-63
2023/08/07 06:01:51;;;;;;;20.52;2.92;;;16.00;99.90;;;;;;5032896;28;20037;-64
2023/08/07 06:04:17;;;;;;;14.57;2.83;;;15.90;99.90;;;;;;5032647;28;20303;-63
2023/08/07 06:06:43;;;;;;;17.92;3.20;;;15.90;99.90;;;;;;5021953;28;20037;-65
2023/08/07 06:09:09;;;;;;;19.67;2.78;;;15.50;99.90;;;;;;5036315;28;20044;-64
2023/08/07 06:11:35;;;;;;;12.77;2.05;;;15.20;99.90;;;;;;5014146;28;20544;-64
2023/08/07 06:14:02;;;;;;;12.73;2.42;;;15.00;99.90;;;;;;5014258;28;20491;-64
2023/08/07 06:16:28;;;;;;;14.00;2.55;;;14.80;99.90;;;;;;5029727;28;20195;-63
2023/08/07 06:18:53;;;;;;;17.92;2.72;;;14.80;99.90;;;;;;5019779;28;20033;-64
2023/08/07 06:21:20;;;;;;;11.48;2.53;;;14.90;99.90;;;;;;5033846;28;20140;-64
2023/08/07 06:23:46;;;;;;;12.45;2.53;;;14.90;99.90;;;;;;5031291;28;20244;-64
2023/08/07 06:26:12;;;;;;;21.05;3.03;;;14.90;99.90;;;;;;5030211;28;20141;-64
2023/08/07 06:28:38;;;;;;;19.02;3.00;;;14.90;99.90;;;;;;5032567;28;20314;-64
2023/08/07 06:31:06;;;;;;;16.05;2.95;;;15.00;99.90;;;;;;5017383;28;20131;-63
2023/08/07 06:33:33;;;;;;;13.30;2.15;;;15.20;99.90;;;;;;5053155;28;20294;-63
2023/08/07 06:35:59;;;;;;;16.17;2.40;;;15.70;99.90;;;;;;5052412;28;20131;-63
2023/08/07 06:38:24;;;;;;;14.10;2.50;;;16.20;99.90;;;;;;5019491;28;20095;-63
2023/08/07 06:40:51;;;;;;;12.15;1.77;;;16.70;99.90;;;;;;5037166;28;20333;-64
2023/08/07 06:43:17;;;;;;;15.32;1.92;;;17.00;99.90;;;;;;5022031;28;20788;-64
2023/08/07 06:45:46;;;;;;;17.70;2.78;;;17.20;99.90;;;;;;5036357;28;20033;-64
2023/08/07 06:48:12;;;;;;;12.68;1.80;;;17.10;99.90;;;;;;5018936;28;20450;-63
2023/08/07 06:50:37;;;;;;;11.00;1.95;;;15.90;99.90;;;;;;5039394;28;20117;-64
2023/08/07 06:53:03;;;;;;;8.57;1.35;;;15.40;99.90;;;;;;5018286;28;20133;-63
2023/08/07 06:55:29;;;;;;;12.75;1.52;;;14.90;99.90;;;;;;5002937;28;20299;-64
2023/08/07 06:57:54;;;;;;;13.07;1.98;;;14.80;99.90;;;;;;5042320;28;20250;-63
2023/08/07 07:00:20;;;;;;;14.30;2.45;;;14.70;99.90;;;;;;5035936;28;20102;-65
2023/08/07 07:02:45;;;;;;;14.73;2.40;;;14.70;99.90;;;;;;5018370;28;20275;-64
2023/08/07 07:05:11;;;;;;;15.13;1.90;;;14.70;99.90;;;;;;5033355;28;20094;-64
2023/08/07 07:07:37;;;;;;;13.82;1.75;;;14.80;99.90;;;;;;5028565;28;20271;-63
2023/08/07 07:10:03;;;;;;;11.68;2.05;;;15.10;99.90;;;;;;5023247;28;20267;-64
2023/08/07 07:12:29;;;;;;;13.40;1.75;;;15.50;99.90;;;;;;5039109;28;20060;-64
2023/08/07 07:14:55;;;;;;;10.10;1.85;;;15.90;99.90;;;;;;5030920;28;20134;-64
2023/08/07 07:17:21;;;;;;;16.35;2.22;;;16.10;99.90;;;;;;5035046;28;20080;-63
2023/08/07 07:19:47;;;;;;;12.20;1.60;;;16.10;99.90;;;;;;5035662;28;20102;-64
2023/08/07 07:22:12;;;;;;;12.35;1.63;;;16.30;99.90;;;;;;5019165;28;20169;-64
2023/08/07 07:24:38;;;;;;;11.65;1.50;;;16.70;99.90;;;;;;5037202;28;20073;-63
2023/08/07 07:27:04;;;;;;;8.73;1.65;;;17.00;99.90;;;;;;5028584;28;20040;-64
2023/08/07 07:29:30;;;;;;;11.38;1.67;;;16.70;99.90;;;;;;5034074;28;20059;-63
2023/08/07 07:31:56;;;;;;;8.80;1.20;;;16.70;99.90;;;;;;5034253;28;20320;-63
2023/08/07 07:34:22;;;;;;;9.30;1.33;;;16.60;99.90;;;;;;5037227;28;20040;-63
2023/08/07 07:36:48;;;;;;;13.52;1.90;;;16.60;99.90;;;;;;5033074;28;20045;-63
2023/08/07 07:39:14;;;;;;;10.77;1.75;;;16.60;99.90;;;;;;5036313;28;20399;-64
2023/08/07 07:41:39;;;;;;;10.95;1.80;;;16.70;99.90;;;;;;5000316;28;20045;-63
2023/08/07 07:44:05;;;;;;;12.43;1.52;;;16.70;99.90;;;;;;5034332;28;20351;-62
2023/08/07 07:46:32;;;;;;;7.43;1.23;;;16.80;99.90;;;;;;5017457;28;20120;-63
2023/08/07 07:48:58;;;;;;;8.95;1.20;;;17.20;99.90;;;;;;5018291;28;20044;-64
2023/08/07 07:51:24;;;;;;;10.35;1.38;;;17.10;99.90;;;;;;5018383;28;20048;-64
2023/08/07 07:53:50;;;;;;;12.52;1.30;;;17.40;99.90;;;;;;5040752;28;20319;-64
2023/08/07 07:56:16;;;;;;;8.35;0.90;;;17.20;97.10;;;;;;5034129;28;20063;-63
2023/08/07 07:58:42;;;;;;;6.30;1.23;;;17.10;90.10;;;;;;5035371;28;20049;-63
2023/08/07 08:01:08;;;;;;;9.30;1.58;;;17.00;76.40;;;;;;5040485;28;20037;-64
2023/08/07 08:03:34;;;;;;;7.00;1.58;;;17.10;98.00;;;;;;5036219;28;20036;-63
2023/08/07 08:06:00;;;;;;;9.70;1.30;;;17.10;99.90;;;;;;5052439;28;20051;-64
2023/08/07 08:08:26;;;;;;;9.38;1.38;;;17.20;99.90;;;;;;5027571;28;20053;-63
2023/08/07 08:10:51;;;;;;;8.93;1.30;;;17.20;97.50;;;;;;5015170;28;20045;-64
2023/08/07 08:13:18;;;;;;;13.95;1.80;;;17.20;99.90;;;;;;5032188;28;20708;-63
2023/08/07 08:15:44;;;;;;;6.45;1.45;;;17.20;99.90;;;;;;5031036;28;20057;-63
2023/08/07 08:18:11;;;;;;;7.57;1.30;;;17.10;99.90;;;;;;5031598;28;20037;-62
2023/08/07 08:20:37;;;;;;;9.38;1.30;;;17.10;99.90;;;;;;5031321;28;20333;-65
2023/08/07 08:23:03;;;;;;;14.98;1.77;;;16.90;99.90;;;;;;5032811;28;20565;-63
2023/08/07 08:25:29;;;;;;;11.68;2.30;;;16.70;99.90;;;;;;5031444;28;20044;-64
2023/08/07 08:27:55;;;;;;;11.75;1.80;;;16.60;99.90;;;;;;5032751;28;20040;-63
2023/08/07 08:30:21;;;;;;;12.95;2.42;;;16.30;99.90;;;;;;5033445;28;20128;-64
2023/08/07 08:32:48;;;;;;;12.73;2.60;;;15.80;99.90;;;;;;5033894;28;20132;-63
2023/08/07 08:35:13;;;;;;;11.18;2.28;;;15.60;99.90;;;;;;5033363;28;20194;-64
2023/08/07 08:37:40;;;;;;;8.95;2.00;;;15.50;99.90;;;;;;5049854;28;20044;-64
2023/08/07 08:40:07;;;;;;;9.85;1.70;;;15.50;99.90;;;;;;5033814;28;20281;-63
2023/08/07 08:42:34;;;;;;;9.95;1.83;;;15.70;99.90;;;;;;5014938;28;20045;-63
2023/08/07 08:45:02;;;;;;;8.88;1.60;;;16.20;99.90;;;;;;5014358;28;20083;-63
2023/08/07 08:47:31;;;;;;;7.35;1.60;;;16.00;99.90;;;;;;5049472;28;20045;-63
2023/08/07 08:50:09;;;;;;;6.90;1.10;;;15.50;99.90;;;;;;5049579;28;20068;-64
2023/08/07 08:52:40;;;;;;;6.75;1.50;;;14.70;99.90;;;;;;5049945;28;20044;-63
2023/08/07 08:55:07;;;;;;;5.85;1.17;;;14.60;99.90;;;;;;5042314;28;20036;-64
2023/08/07 08:57:34;;;;;;;7.25;1.40;;;14.70;99.90;;;;;;5013774;28;20355;-64
2023/08/07 09:00:01;;;;;;;14.23;2.00;;;14.90;99.90;;;;;;5016192;28;20043;-64
2023/08/07 09:02:27;;;;;;;8.43;1.67;;;15.30;99.90;;;;;;5043854;28;20072;-64
2023/08/07 09:04:53;;;;;;;8.98;1.60;;;15.60;99.90;;;;;;5019761;28;20075;-64
2023/08/07 09:07:20;;;;;;;15.50;2.17;;;15.80;99.90;;;;;;5039646;28;20032;-65
2023/08/07 09:09:48;;;;;;;12.43;2.20;;;15.70;99.90;;;;;;5037141;28;20434;-63
2023/08/07 09:12:20;;;;;;;9.98;1.65;;;15.40;99.90;;;;;;5036239;28;20450;-64
2023/08/07 09:14:52;;;;;;;10.18;1.90;;;15.30;99.90;;;;;;5036386;28;20641;-64
2023/08/07 09:17:19;;;;;;;10.57;1.90;;;15.30;99.90;;;;;;5035134;28;20057;-63
2023/08/07 09:19:45;;;;;;;11.55;1.80;;;15.40;99.90;;;;;;5015784;28;20397;-64
2023/08/07 09:22:11;;;;;;;12.50;2.08;;;15.50;99.90;;;;;;5032205;28;20399;-64
2023/08/07 09:24:37;;;;;;;9.88;1.65;;;15.60;99.90;;;;;;5014234;28;20041;-64
2023/08/07 09:27:05;;;;;;;12.40;1.80;;;15.60;99.90;;;;;;5031446;28;20443;-63
2023/08/07 09:29:31;;;;;;;12.48;2.08;;;15.60;99.90;;;;;;5031020;28;20714;-63
2023/08/07 09:31:57;;;;;;;11.43;2.85;;;15.60;99.90;;;;;;5014805;28;20102;-63
2023/08/07 09:34:23;;;;;;;11.73;2.28;;;15.50;99.90;;;;;;5049674;28;20049;-63
2023/08/07 09:36:49;;;;;;;10.68;2.00;;;15.60;99.90;;;;;;5045889;28;20082;-63
2023/08/07 09:39:15;;;;;;;10.43;1.95;;;15.80;99.90;;;;;;5019842;28;20041;-64
2023/08/07 09:41:40;;;;;;;8.48;1.80;;;15.90;99.90;;;;;;5033247;28;20224;-63
2023/08/07 09:44:13;;;;;;;12.40;2.15;;;16.00;99.90;;;;;;5035129;28;20041;-64
2023/08/07 09:46:43;;;;;;;9.80;1.63;;;16.30;99.90;;;;;;5031562;28;20044;-63
2023/08/07 09:49:09;;;;;;;9.75;1.48;;;17.10;99.90;;;;;;5045683;28;20283;-64
2023/08/07 09:51:42;;;;;;;10.18;1.23;;;17.40;65.20;;;;;;5049325;28;20248;-63
2023/08/07 09:54:08;;;;;;;6.18;0.82;;;17.70;39.80;;;;;;5032588;28;20303;-64
2023/08/07 09:56:35;;;;;;;11.18;1.27;;;17.70;9.10;;;;;;5013645;28;20306;-63
2023/08/07 09:59:01;;;;;;;8.95;1.20;;;17.50;7.50;;;;;;5045180;28;20049;-62
2023/08/07 10:01:27;;;;;;;11.48;1.70;;;17.70;29.90;;;;;;5046755;28;20065;-64
2023/08/07 10:03:53;;;;;;;11.68;2.13;;;17.40;45.60;;;;;;5039611;28;20174;-63
2023/08/07 10:06:20;;;;;;;8.52;1.67;;;17.00;82.90;;;;;;5050980;28;20608;-62
2023/08/07 10:08:46;;;;;;;10.02;1.50;;;16.90;95.70;;;;;;5034996;28;20044;-63
2023/08/07 10:11:13;;;;;;;8.43;1.45;;;16.80;93.00;;;;;;5051629;28;20366;-63
2023/08/07 10:13:41;;;;;;;11.13;1.90;;;16.70;99.90;;;;;;5038406;28;20418;-64
2023/08/07 10:16:07;;;;;;;7.13;1.30;;;16.70;99.90;;;;;;5035420;28;20397;-63
2023/08/07 10:18:33;;;;;;;8.25;1.35;;;16.40;99.90;;;;;;5051204;28;20447;-65
2023/08/07 10:21:01;;;;;;;8.35;1.38;;;16.30;99.90;;;;;;5048141;28;20124;-63
2023/08/07 10:23:27;;;;;;;11.52;1.83;;;16.30;99.90;;;;;;5047741;28;20303;-63
2023/08/07 10:25:54;;;;;;;10.25;1.27;;;16.40;99.90;;;;;;5047873;28;20628;-62
2023/08/07 10:28:22;;;;;;;6.28;1.20;;;16.30;99.90;;;;;;5030947;28;20045;-63
2023/08/07 10:30:49;;;;;;;11.52;1.70;;;16.00;99.90;;;;;;5031082;28;20175;-63
2023/08/07 10:33:17;;;;;;;8.18;2.13;;;15.90;99.90;;;;;;5050215;28;20052;-63
2023/08/07 10:35:48;;;;;;;9.55;1.63;;;16.10;99.90;;;;;;5053013;28;20059;-63
2023/08/07 10:38:14;;;;;;;8.38;1.80;;;16.30;99.90;;;;;;5052573;28;20044;-63
2023/08/07 10:41:02;;;;;;;9.38;2.05;;;16.30;99.90;;;;;;5049565;28;20108;-63
2023/08/07 10:43:29;;;;;;;10.15;1.38;;;16.50;99.90;;;;;;5049701;28;20044;-62
2023/08/07 10:46:25;;;;;;;11.77;2.10;;;16.50;99.90;;;;;;5049618;28;20044;-63
2023/08/07 10:48:57;;;;;;;9.20;1.50;;;16.50;99.90;;;;;;5037945;28;20041;-64
2023/08/07 10:51:32;;;;;;;9.73;1.70;;;16.70;99.90;;;;;;5057367;28;20052;-63
2023/08/07 10:54:01;;;;;;;11.85;1.70;;;16.80;99.90;;;;;;5034875;28;20083;-63
2023/08/07 10:56:32;;;;;;;10.00;1.40;;;17.10;99.90;;;;;;5034724;28;20697;-63
2023/08/07 10:58:57;;;;;;;8.63;1.30;;;17.40;93.90;;;;;;5016925;28;20261;-63
2023/08/07 11:01:29;;;;;;;8.88;1.35;;;17.60;98.20;;;;;;5033431;28;20060;-63
2023/08/07 11:04:00;;;;;;;11.05;1.58;;;17.50;84.30;;;;;;5034478;28;20052;-63
2023/08/07 11:06:33;;;;;;;6.90;1.40;;;17.60;78.30;;;;;;5033342;28;20303;-64
2023/08/07 11:09:00;;;;;;;10.05;1.30;;;17.60;23.10;;;;;;5032878;28;20052;-63
2023/08/07 11:11:39;;;;;;;5.93;1.05;;;17.60;4.90;;;;;;5016361;28;20135;-64
2023/08/07 11:14:10;;;;;;;6.82;1.13;;;17.70;4.80;;;;;;5017120;28;20132;-64
2023/08/07 11:16:36;;;;;;;7.38;1.17;;;18.30;1.00;;;;;;5034076;28;20045;-65
2023/08/07 11:19:03;;;;;;;5.65;0.93;;;18.60;1.00;;;;;;5033093;28;20621;-64
2023/08/07 11:21:30;;;;;;;9.63;1.00;;;19.00;1.00;;;;;;5051786;28;20469;-64
2023/08/07 11:23:56;;;;;;;7.10;1.10;;;19.10;1.00;;;;;;5024643;28;20037;-65
2023/08/07 11:26:23;;;;;;;5.70;0.98;;;19.40;1.00;;;;;;5032873;28;20052;-65
2023/08/07 11:28:49;;;;;;;6.38;1.08;;;19.80;1.00;;;;;;5032801;28;20041;-65
2023/08/07 11:31:14;;;;;;;7.63;1.00;;;19.30;1.00;;;;;;5051913;28;20040;-65
2023/08/07 11:33:41;;;;;;;5.78;0.85;;;18.80;1.00;;;;;;5016753;28;20051;-64
2023/08/07 11:36:13;;;;;;;6.18;1.20;;;18.40;1.00;;;;;;5046871;28;20144;-64
2023/08/07 11:38:43;;;;;;;;;;;18.40;1.00;;;;;;5035331;28;20048;-64
2023/08/07 11:41:10;;;;;;;7.82;0.90;;;18.10;1.00;;;;;;5037111;28;20149;-65
2023/08/07 11:43:36;;;;;;;6.88;1.13;;;18.30;1.00;;;;;;5017385;28;20064;-65
2023/08/07 11:46:06;;;;;;;16.77;2.13;;;18.30;1.00;;;;;;5036717;28;20044;-66
2023/08/07 11:48:33;;;;;;;7.45;1.25;;;18.40;1.00;;;;;;5051094;28;20094;-65
2023/08/07 11:51:00;;;;;;;10.00;1.10;;;19.00;1.00;;;;;;5034765;28;20112;-66
2023/08/07 11:53:31;;;;;;;9.05;1.08;;;19.00;1.00;;;;;;5040939;28;20487;-64
2023/08/07 11:55:59;;;;;;;7.00;0.80;;;19.00;1.00;;;;;;5032768;28;20051;-65
2023/08/07 11:58:26;;;;;;;5.57;0.90;;;18.60;1.00;;;;;;5031944;28;20048;-65
2023/08/07 12:00:52;;;;;;;8.85;1.10;;;18.30;1.00;;;;;;5015510;28;20136;-65
2023/08/07 12:03:28;;;;;;;8.45;1.30;;;18.30;1.00;;;;;;5015830;28;20049;-65
2023/08/07 12:05:58;;;;;;;9.25;1.20;;;18.40;1.00;;;;;;5031923;28;20203;-64
2023/08/07 12:08:25;;;;;;;7.85;1.15;;;18.60;5.40;;;;;;5033724;28;20657;-65
2023/08/07 12:10:53;;;;;;;6.28;0.70;;;19.10;1.00;;;;;;5015297;28;20045;-65
2023/08/07 12:13:23;;;;;;;5.90;0.70;;;19.00;1.00;;;;;;5016104;28;20061;-64
2023/08/07 12:15:54;;;;;;;6.13;0.82;;;19.70;1.00;;;;;;5051280;28;20441;-65
2023/08/07 12:18:22;;;;;;;6.47;1.05;;;20.30;1.00;;;;;;5034332;28;20449;-64
2023/08/07 12:20:52;;;;;;;3.40;0.68;;;20.00;1.00;;;;;;5051176;28;20048;-64
2023/08/07 12:23:20;;;;;;;5.25;0.60;;;19.20;1.00;;;;;;5033560;28;20183;-63
2023/08/07 12:25:47;;;;;;;7.55;0.90;;;19.00;1.00;;;;;;5034708;28;20045;-64
2023/08/07 12:28:12;;;;;;;4.45;0.60;;;18.80;1.00;;;;;;5032148;28;20045;-64
2023/08/07 12:30:39;;;;;;;5.35;0.50;;;19.10;1.00;;;;;;5031907;28;20128;-65
2023/08/07 12:33:05;;;;;;;8.60;0.70;;;19.40;1.00;;;;;;5036374;28;20056;-64
2023/08/07 12:35:31;;;;;;;5.18;0.80;;;19.20;1.00;;;;;;5037602;28;20549;-65
2023/08/07 12:37:57;;;;;;;5.03;0.60;;;19.40;1.00;;;;;;5014811;28;20103;-65
2023/08/07 12:40:23;;;;;;;7.25;1.10;;;19.50;1.00;;;;;;5049962;28;20115;-64